EWG4378 EDDW-ENZV
Flight info
| Callsign | EWG4378 |
|---|---|
| Flight time | 1h 3m |
| Altitude | 38000 |
| Route | WSN1M WSN DCT KARLI/N0446F390 Z322 UNBUD |
| Aircraft | A320/M-SDE3FGHIRWY/LB1 |
Departure
| Time | 2026-05-06 17:25 |
|---|---|
| Airport | Bremen Airport (EDDW) |
Arrival
| Time | 2026-05-06 18:28 |
|---|---|
| Airport | Stavanger Airport, Sola (ENZV) |
| Time | Latitude | Longitude | Altitude | Speed | Heading |
|---|---|---|---|---|---|
| 2026-05-06 17:02 | 53.05203 | 8.78474 | 22 ft | 0 kts | 35° |
| 2026-05-06 17:15 | 53.05193 | 8.78461 | 23 ft | 2 kts | 34° |
| 2026-05-06 17:15 | 53.05182 | 8.78449 | 27 ft | 2 kts | 35° |
| 2026-05-06 17:15 | 53.05171 | 8.78437 | 28 ft | 2 kts | 34° |
| 2026-05-06 17:15 | 53.05161 | 8.78425 | 28 ft | 2 kts | 36° |
| 2026-05-06 17:16 | 53.05151 | 8.78412 | 24 ft | 2 kts | 347° |
| 2026-05-06 17:16 | 53.05139 | 8.78419 | 28 ft | 2 kts | 322° |
| 2026-05-06 17:16 | 53.05129 | 8.78433 | 27 ft | 2 kts | 314° |
| 2026-05-06 17:16 | 53.05122 | 8.78445 | 28 ft | 0 kts | 313° |
| 2026-05-06 17:17 | 53.05121 | 8.78447 | 29 ft | 0 kts | 313° |
| 2026-05-06 17:21 | 53.05134 | 8.78420 | 26 ft | 11 kts | 307° |
| 2026-05-06 17:22 | 53.05174 | 8.78292 | 22 ft | 12 kts | 288° |
| 2026-05-06 17:22 | 53.05194 | 8.78162 | 22 ft | 11 kts | 278° |
| 2026-05-06 17:22 | 53.05180 | 8.78047 | 22 ft | 10 kts | 247° |
| 2026-05-06 17:22 | 53.05147 | 8.77952 | 22 ft | 9 kts | 232° |
| 2026-05-06 17:23 | 53.05080 | 8.77826 | 22 ft | 22 kts | 229° |
| 2026-05-06 17:23 | 53.04970 | 8.77626 | 22 ft | 24 kts | 228° |
| 2026-05-06 17:23 | 53.04841 | 8.77479 | 22 ft | 17 kts | 199° |
| 2026-05-06 17:23 | 53.04727 | 8.77455 | 22 ft | 16 kts | 173° |
| 2026-05-06 17:24 | 53.04660 | 8.77573 | 22 ft | 14 kts | 97° |
| 2026-05-06 17:24 | 53.04662 | 8.77667 | 22 ft | 0 kts | 88° |
| 2026-05-06 17:25 | 53.04662 | 8.77681 | 22 ft | 8 kts | 88° |
| 2026-05-06 17:25 | 53.04675 | 8.78215 | 22 ft | 85 kts | 87° |
| 2026-05-06 17:25 | 53.04714 | 8.79562 | 27 ft | 145 kts | 83° |
| 2026-05-06 17:25 | 53.04735 | 8.81290 | 641 ft | 147 kts | 87° |
| 2026-05-06 17:26 | 53.04753 | 8.82973 | 1478 ft | 143 kts | 84° |
| 2026-05-06 17:26 | 53.04790 | 8.84619 | 2148 ft | 147 kts | 84° |
| 2026-05-06 17:26 | 53.04829 | 8.86445 | 2521 ft | 169 kts | 84° |
| 2026-05-06 17:26 | 53.04876 | 8.88546 | 2923 ft | 194 kts | 85° |
| 2026-05-06 17:27 | 53.04930 | 8.90935 | 3417 ft | 219 kts | 86° |
| 2026-05-06 17:27 | 53.04991 | 8.93598 | 3978 ft | 242 kts | 86° |
| 2026-05-06 17:27 | 53.05233 | 8.96404 | 4850 ft | 250 kts | 66° |
| 2026-05-06 17:27 | 53.06359 | 8.98608 | 5774 ft | 259 kts | 32° |
| 2026-05-06 17:28 | 53.08069 | 8.99634 | 6708 ft | 266 kts | 13° |
| 2026-05-06 17:28 | 53.09918 | 9.00032 | 7661 ft | 270 kts | 6° |
| 2026-05-06 17:28 | 53.11806 | 9.00110 | 8611 ft | 275 kts | 355° |
| 2026-05-06 17:28 | 53.13675 | 8.99357 | 9578 ft | 279 kts | 340° |
| 2026-05-06 17:29 | 53.15501 | 8.98122 | 10286 ft | 292 kts | 340° |
| 2026-05-06 17:29 | 53.17485 | 8.96927 | 10637 ft | 314 kts | 342° |
| 2026-05-06 17:29 | 53.19596 | 8.95760 | 11309 ft | 323 kts | 343° |
| 2026-05-06 17:29 | 53.21757 | 8.94599 | 12097 ft | 329 kts | 343° |
| 2026-05-06 17:30 | 53.23955 | 8.93419 | 12889 ft | 335 kts | 343° |
| 2026-05-06 17:30 | 53.26163 | 8.92224 | 13639 ft | 341 kts | 343° |
| 2026-05-06 17:30 | 53.28430 | 8.90981 | 14329 ft | 345 kts | 342° |
| 2026-05-06 17:30 | 53.30724 | 8.89710 | 15007 ft | 350 kts | 342° |
| 2026-05-06 17:31 | 53.33052 | 8.88414 | 15688 ft | 355 kts | 341° |
| 2026-05-06 17:31 | 53.35376 | 8.86946 | 16343 ft | 359 kts | 334° |
| 2026-05-06 17:31 | 53.37627 | 8.85074 | 17029 ft | 364 kts | 332° |
| 2026-05-06 17:31 | 53.39908 | 8.83170 | 17702 ft | 368 kts | 332° |
| 2026-05-06 17:32 | 53.42213 | 8.81247 | 18354 ft | 372 kts | 332° |
| 2026-05-06 17:32 | 53.44544 | 8.79301 | 18954 ft | 376 kts | 332° |
| 2026-05-06 17:32 | 53.46887 | 8.77341 | 19605 ft | 377 kts | 332° |
| 2026-05-06 17:32 | 53.49244 | 8.75364 | 20241 ft | 379 kts | 332° |
| 2026-05-06 17:33 | 53.51604 | 8.73383 | 20848 ft | 382 kts | 332° |
| 2026-05-06 17:33 | 53.53987 | 8.71380 | 21445 ft | 384 kts | 332° |
| 2026-05-06 17:33 | 53.56384 | 8.69365 | 22024 ft | 387 kts | 332° |
| 2026-05-06 17:33 | 53.58803 | 8.67332 | 22602 ft | 390 kts | 332° |
| 2026-05-06 17:34 | 53.61239 | 8.65278 | 23181 ft | 393 kts | 332° |
| 2026-05-06 17:34 | 53.63688 | 8.63211 | 23690 ft | 396 kts | 332° |
| 2026-05-06 17:34 | 53.66161 | 8.61123 | 24136 ft | 399 kts | 332° |
| 2026-05-06 17:34 | 53.68650 | 8.59020 | 24577 ft | 402 kts | 332° |
| 2026-05-06 17:35 | 53.71155 | 8.56901 | 25004 ft | 405 kts | 331° |
| 2026-05-06 17:35 | 53.73683 | 8.54757 | 25421 ft | 408 kts | 331° |
| 2026-05-06 17:35 | 53.76230 | 8.52594 | 25841 ft | 411 kts | 331° |
| 2026-05-06 17:36 | 53.81374 | 8.48211 | 26664 ft | 417 kts | 331° |
| 2026-05-06 17:36 | 53.83978 | 8.45995 | 27066 ft | 420 kts | 331° |
| 2026-05-06 17:36 | 53.86597 | 8.43762 | 27470 ft | 423 kts | 331° |
| 2026-05-06 17:36 | 53.89237 | 8.41508 | 27875 ft | 426 kts | 331° |
| 2026-05-06 17:37 | 53.91895 | 8.39233 | 28232 ft | 430 kts | 330° |
| 2026-05-06 17:37 | 53.94579 | 8.36928 | 28585 ft | 434 kts | 330° |
| 2026-05-06 17:37 | 53.97278 | 8.34602 | 28960 ft | 437 kts | 330° |
| 2026-05-06 17:37 | 54.00004 | 8.32250 | 29324 ft | 441 kts | 330° |
| 2026-05-06 17:38 | 54.02747 | 8.29887 | 29695 ft | 443 kts | 330° |
| 2026-05-06 17:38 | 54.05509 | 8.27504 | 30046 ft | 446 kts | 330° |
| 2026-05-06 17:38 | 54.08283 | 8.25110 | 30370 ft | 448 kts | 330° |
| 2026-05-06 17:38 | 54.11069 | 8.22698 | 30681 ft | 450 kts | 330° |
| 2026-05-06 17:39 | 54.13867 | 8.20274 | 31000 ft | 452 kts | 330° |
| 2026-05-06 17:39 | 54.16672 | 8.17838 | 31306 ft | 453 kts | 330° |
| 2026-05-06 17:39 | 54.19487 | 8.15384 | 31614 ft | 455 kts | 330° |
| 2026-05-06 17:39 | 54.22304 | 8.12928 | 32029 ft | 454 kts | 330° |
| 2026-05-06 17:40 | 54.25113 | 8.10480 | 32485 ft | 452 kts | 330° |
| 2026-05-06 17:40 | 54.27911 | 8.08045 | 32942 ft | 450 kts | 330° |
| 2026-05-06 17:40 | 54.30699 | 8.05619 | 33383 ft | 449 kts | 330° |
| 2026-05-06 17:40 | 54.33476 | 8.03197 | 33836 ft | 447 kts | 330° |
| 2026-05-06 17:41 | 54.36243 | 8.00771 | 34232 ft | 446 kts | 329° |
| 2026-05-06 17:41 | 54.39001 | 7.98341 | 34566 ft | 445 kts | 329° |
| 2026-05-06 17:41 | 54.41757 | 7.95909 | 34873 ft | 445 kts | 329° |
| 2026-05-06 17:41 | 54.44512 | 7.93478 | 35168 ft | 445 kts | 329° |
| 2026-05-06 17:42 | 54.47268 | 7.91045 | 35460 ft | 446 kts | 329° |
| 2026-05-06 17:42 | 54.50028 | 7.88607 | 35756 ft | 446 kts | 329° |
| 2026-05-06 17:42 | 54.52785 | 7.86167 | 36031 ft | 446 kts | 329° |
| 2026-05-06 17:42 | 54.55543 | 7.83724 | 36302 ft | 446 kts | 329° |
| 2026-05-06 17:43 | 54.58301 | 7.81276 | 36563 ft | 446 kts | 329° |
| 2026-05-06 17:43 | 54.61056 | 7.78823 | 36832 ft | 446 kts | 329° |
| 2026-05-06 17:43 | 54.63814 | 7.76365 | 37087 ft | 446 kts | 329° |
| 2026-05-06 17:43 | 54.66573 | 7.73905 | 37338 ft | 446 kts | 329° |
| 2026-05-06 17:44 | 54.69332 | 7.71441 | 37584 ft | 446 kts | 329° |
| 2026-05-06 17:44 | 54.72090 | 7.68975 | 37830 ft | 447 kts | 329° |
| 2026-05-06 17:44 | 54.74851 | 7.66498 | 37941 ft | 447 kts | 329° |
| 2026-05-06 17:44 | 54.77606 | 7.64022 | 37971 ft | 446 kts | 328° |
| 2026-05-06 17:45 | 54.83111 | 7.59060 | 37965 ft | 445 kts | 328° |
| 2026-05-06 17:45 | 54.88581 | 7.54174 | 37959 ft | 447 kts | 333° |
| 2026-05-06 17:46 | 54.94369 | 7.50156 | 37967 ft | 448 kts | 335° |
| 2026-05-06 17:46 | 55.00202 | 7.46309 | 37967 ft | 448 kts | 335° |
| 2026-05-06 17:47 | 55.06035 | 7.42463 | 37990 ft | 448 kts | 335° |
| 2026-05-06 17:47 | 55.11852 | 7.38531 | 37994 ft | 448 kts | 334° |
| 2026-05-06 17:48 | 55.17666 | 7.34573 | 37990 ft | 449 kts | 335° |
| 2026-05-06 17:48 | 55.23492 | 7.30659 | 37988 ft | 449 kts | 335° |
| 2026-05-06 17:49 | 55.29323 | 7.26724 | 37996 ft | 449 kts | 335° |
| 2026-05-06 17:49 | 55.35145 | 7.22761 | 38015 ft | 449 kts | 334° |
| 2026-05-06 17:50 | 55.40958 | 7.18777 | 38023 ft | 448 kts | 334° |
| 2026-05-06 17:50 | 55.46765 | 7.14788 | 38013 ft | 447 kts | 334° |
| 2026-05-06 17:51 | 55.52563 | 7.10804 | 38017 ft | 447 kts | 334° |
| 2026-05-06 17:51 | 55.58352 | 7.06805 | 38032 ft | 447 kts | 334° |
| 2026-05-06 17:52 | 55.64145 | 7.02796 | 38024 ft | 447 kts | 334° |
| 2026-05-06 17:52 | 55.69933 | 6.98765 | 38026 ft | 447 kts | 334° |
| 2026-05-06 17:53 | 55.75723 | 6.94731 | 38020 ft | 447 kts | 334° |
| 2026-05-06 17:53 | 55.81519 | 6.90693 | 38025 ft | 447 kts | 334° |
| 2026-05-06 17:54 | 55.87312 | 6.86650 | 38027 ft | 447 kts | 334° |
| 2026-05-06 17:54 | 55.93097 | 6.82583 | 38021 ft | 447 kts | 334° |
| 2026-05-06 17:55 | 55.97899 | 6.79177 | 38035 ft | 447 kts | 334° |
| 2026-05-06 17:55 | 56.03674 | 6.75093 | 38033 ft | 447 kts | 334° |
| 2026-05-06 17:56 | 56.09460 | 6.70998 | 38031 ft | 447 kts | 334° |
| 2026-05-06 17:56 | 56.15236 | 6.66881 | 38058 ft | 447 kts | 334° |
| 2026-05-06 17:57 | 56.21008 | 6.62751 | 38053 ft | 447 kts | 334° |
| 2026-05-06 17:57 | 56.26782 | 6.58620 | 38049 ft | 446 kts | 334° |
| 2026-05-06 17:58 | 56.32549 | 6.54486 | 38045 ft | 446 kts | 334° |
| 2026-05-06 17:58 | 56.38309 | 6.50318 | 38042 ft | 446 kts | 334° |
| 2026-05-06 17:59 | 56.44061 | 6.46132 | 38055 ft | 446 kts | 333° |
| 2026-05-06 17:59 | 56.49817 | 6.41965 | 38047 ft | 445 kts | 334° |
| 2026-05-06 18:00 | 56.55566 | 6.37784 | 38045 ft | 445 kts | 333° |
| 2026-05-06 18:00 | 56.61267 | 6.33615 | 38058 ft | 444 kts | 333° |
| 2026-05-06 18:01 | 56.66994 | 6.29414 | 38052 ft | 443 kts | 333° |
| 2026-05-06 18:01 | 56.72713 | 6.25213 | 38066 ft | 443 kts | 333° |
| 2026-05-06 18:02 | 56.78424 | 6.20994 | 38057 ft | 443 kts | 333° |
| 2026-05-06 18:02 | 56.84124 | 6.16770 | 38052 ft | 442 kts | 333° |
| 2026-05-06 18:03 | 56.89829 | 6.12534 | 38049 ft | 442 kts | 333° |
| 2026-05-06 18:03 | 56.95530 | 6.08293 | 38050 ft | 442 kts | 333° |
| 2026-05-06 18:04 | 57.01228 | 6.04023 | 37907 ft | 442 kts | 333° |
| 2026-05-06 18:04 | 57.04076 | 6.01884 | 37627 ft | 441 kts | 333° |
| 2026-05-06 18:04 | 57.06918 | 5.99754 | 37362 ft | 441 kts | 333° |
| 2026-05-06 18:05 | 57.09756 | 5.97624 | 37097 ft | 441 kts | 333° |
| 2026-05-06 18:05 | 57.12596 | 5.95488 | 36835 ft | 441 kts | 333° |
| 2026-05-06 18:05 | 57.15432 | 5.93349 | 36577 ft | 441 kts | 333° |
| 2026-05-06 18:05 | 57.18264 | 5.91203 | 36341 ft | 440 kts | 333° |
| 2026-05-06 18:06 | 57.21095 | 5.89056 | 35862 ft | 440 kts | 333° |
| 2026-05-06 18:06 | 57.23941 | 5.86896 | 35021 ft | 445 kts | 332° |
| 2026-05-06 18:06 | 57.26795 | 5.84725 | 34477 ft | 441 kts | 332° |
| 2026-05-06 18:06 | 57.29625 | 5.82576 | 33893 ft | 439 kts | 332° |
| 2026-05-06 18:07 | 57.32436 | 5.80437 | 33303 ft | 434 kts | 332° |
| 2026-05-06 18:07 | 57.35210 | 5.78327 | 32743 ft | 428 kts | 332° |
| 2026-05-06 18:07 | 57.37935 | 5.76253 | 32183 ft | 416 kts | 332° |
| 2026-05-06 18:07 | 57.40562 | 5.74257 | 31668 ft | 400 kts | 332° |
| 2026-05-06 18:08 | 57.43088 | 5.72327 | 31156 ft | 385 kts | 332° |
| 2026-05-06 18:08 | 57.45521 | 5.70456 | 30682 ft | 372 kts | 331° |
| 2026-05-06 18:08 | 57.47879 | 5.68632 | 30214 ft | 366 kts | 331° |
| 2026-05-06 18:08 | 57.50221 | 5.66809 | 29709 ft | 364 kts | 331° |
| 2026-05-06 18:09 | 57.52548 | 5.65002 | 29248 ft | 361 kts | 331° |
| 2026-05-06 18:09 | 57.54866 | 5.63205 | 28805 ft | 361 kts | 331° |
| 2026-05-06 18:09 | 57.57171 | 5.61419 | 28374 ft | 357 kts | 331° |
| 2026-05-06 18:09 | 57.59450 | 5.59659 | 27937 ft | 353 kts | 331° |
| 2026-05-06 18:10 | 57.61709 | 5.57909 | 27522 ft | 350 kts | 331° |
| 2026-05-06 18:10 | 57.63916 | 5.56195 | 27113 ft | 347 kts | 331° |
| 2026-05-06 18:10 | 57.66139 | 5.54465 | 26713 ft | 345 kts | 331° |
| 2026-05-06 18:10 | 57.68344 | 5.52745 | 26316 ft | 342 kts | 331° |
| 2026-05-06 18:11 | 57.70534 | 5.51038 | 25916 ft | 340 kts | 331° |
| 2026-05-06 18:11 | 57.72710 | 5.49334 | 25515 ft | 338 kts | 331° |
| 2026-05-06 18:11 | 57.74870 | 5.47640 | 25112 ft | 336 kts | 331° |
| 2026-05-06 18:11 | 57.77021 | 5.45955 | 24693 ft | 334 kts | 331° |
| 2026-05-06 18:12 | 57.79157 | 5.44283 | 24270 ft | 332 kts | 332° |
| 2026-05-06 18:12 | 57.81282 | 5.42618 | 23877 ft | 330 kts | 330° |
| 2026-05-06 18:12 | 57.83397 | 5.40955 | 23395 ft | 329 kts | 331° |
| 2026-05-06 18:12 | 57.85501 | 5.39296 | 22941 ft | 326 kts | 331° |
| 2026-05-06 18:13 | 57.87586 | 5.37650 | 22512 ft | 323 kts | 331° |
| 2026-05-06 18:13 | 57.89647 | 5.36023 | 22084 ft | 320 kts | 331° |
| 2026-05-06 18:13 | 57.91696 | 5.34404 | 21682 ft | 318 kts | 331° |
| 2026-05-06 18:13 | 57.93730 | 5.32798 | 21267 ft | 316 kts | 332° |
| 2026-05-06 18:14 | 57.95753 | 5.31202 | 20855 ft | 314 kts | 332° |
| 2026-05-06 18:14 | 57.97767 | 5.29609 | 20451 ft | 313 kts | 332° |
| 2026-05-06 18:14 | 57.99769 | 5.28020 | 20040 ft | 312 kts | 332° |
| 2026-05-06 18:14 | 58.01763 | 5.26431 | 19637 ft | 311 kts | 332° |
| 2026-05-06 18:15 | 58.03752 | 5.24841 | 19234 ft | 310 kts | 332° |
| 2026-05-06 18:15 | 58.05739 | 5.23259 | 18811 ft | 310 kts | 333° |
| 2026-05-06 18:15 | 58.07891 | 5.22293 | 17959 ft | 332 kts | 353° |
| 2026-05-06 18:15 | 58.10239 | 5.23001 | 16982 ft | 354 kts | 13° |
| 2026-05-06 18:16 | 58.12617 | 5.24507 | 16131 ft | 365 kts | 14° |
| 2026-05-06 18:16 | 58.14992 | 5.26062 | 15793 ft | 358 kts | 15° |
| 2026-05-06 18:16 | 58.17324 | 5.27606 | 15342 ft | 352 kts | 15° |
| 2026-05-06 18:16 | 58.19616 | 5.29118 | 14520 ft | 346 kts | 14° |
| 2026-05-06 18:17 | 58.21877 | 5.30593 | 13687 ft | 342 kts | 14° |
| 2026-05-06 18:17 | 58.24111 | 5.32039 | 12816 ft | 336 kts | 15° |
| 2026-05-06 18:17 | 58.26308 | 5.33459 | 11998 ft | 330 kts | 15° |
| 2026-05-06 18:17 | 58.28435 | 5.34833 | 11566 ft | 314 kts | 15° |
| 2026-05-06 18:18 | 58.30448 | 5.36140 | 11164 ft | 299 kts | 15° |
| 2026-05-06 18:18 | 58.32372 | 5.37392 | 10784 ft | 286 kts | 15° |
| 2026-05-06 18:18 | 58.34218 | 5.38595 | 10394 ft | 276 kts | 14° |
| 2026-05-06 18:18 | 58.36042 | 5.39777 | 10121 ft | 280 kts | 14° |
| 2026-05-06 18:19 | 58.37903 | 5.40978 | 10010 ft | 283 kts | 14° |
| 2026-05-06 18:19 | 58.39776 | 5.42192 | 9531 ft | 285 kts | 14° |
| 2026-05-06 18:19 | 58.41643 | 5.43411 | 9135 ft | 282 kts | 15° |
| 2026-05-06 18:19 | 58.43486 | 5.44623 | 8693 ft | 281 kts | 15° |
| 2026-05-06 18:20 | 58.45318 | 5.45828 | 8351 ft | 276 kts | 15° |
| 2026-05-06 18:20 | 58.47127 | 5.47017 | 7964 ft | 273 kts | 15° |
| 2026-05-06 18:20 | 58.48915 | 5.48185 | 7567 ft | 270 kts | 14° |
| 2026-05-06 18:20 | 58.50663 | 5.49330 | 7177 ft | 268 kts | 16° |
| 2026-05-06 18:21 | 58.52419 | 5.50485 | 6780 ft | 265 kts | 17° |
| 2026-05-06 18:21 | 58.54151 | 5.51624 | 6423 ft | 261 kts | 17° |
| 2026-05-06 18:21 | 58.55862 | 5.52749 | 5984 ft | 259 kts | 17° |
| 2026-05-06 18:21 | 58.57565 | 5.53871 | 5560 ft | 258 kts | 16° |
| 2026-05-06 18:22 | 58.59250 | 5.54984 | 5151 ft | 255 kts | 16° |
| 2026-05-06 18:22 | 58.60917 | 5.56089 | 4722 ft | 253 kts | 17° |
| 2026-05-06 18:22 | 58.62577 | 5.57188 | 4243 ft | 252 kts | 16° |
| 2026-05-06 18:22 | 58.64222 | 5.58274 | 3811 ft | 248 kts | 17° |
| 2026-05-06 18:23 | 58.65833 | 5.59338 | 3575 ft | 239 kts | 16° |
| 2026-05-06 18:23 | 58.67370 | 5.60359 | 3255 ft | 227 kts | 17° |
| 2026-05-06 18:23 | 58.68795 | 5.61308 | 3089 ft | 207 kts | 17° |
| 2026-05-06 18:23 | 58.70117 | 5.62190 | 2989 ft | 195 kts | 17° |
| 2026-05-06 18:24 | 58.71362 | 5.63018 | 2905 ft | 185 kts | 17° |
| 2026-05-06 18:24 | 58.72538 | 5.63798 | 2844 ft | 174 kts | 15° |
| 2026-05-06 18:24 | 58.73688 | 5.64197 | 2721 ft | 161 kts | 1° |
| 2026-05-06 18:24 | 58.74774 | 5.64160 | 2431 ft | 149 kts | 357° |
| 2026-05-06 18:25 | 58.75740 | 5.64125 | 2301 ft | 132 kts | 358° |
| 2026-05-06 18:25 | 58.76646 | 5.64077 | 2139 ft | 127 kts | 356° |
| 2026-05-06 18:25 | 58.77527 | 5.64038 | 1955 ft | 126 kts | 356° |
| 2026-05-06 18:25 | 58.78399 | 5.64031 | 1724 ft | 124 kts | 359° |
| 2026-05-06 18:26 | 58.79261 | 5.64039 | 1576 ft | 125 kts | 357° |
| 2026-05-06 18:26 | 58.80128 | 5.63989 | 1417 ft | 123 kts | 357° |
| 2026-05-06 18:26 | 58.80989 | 5.63970 | 1268 ft | 125 kts | 357° |
| 2026-05-06 18:26 | 58.81853 | 5.63961 | 1117 ft | 124 kts | 357° |
| 2026-05-06 18:27 | 58.82714 | 5.63946 | 968 ft | 125 kts | 358° |
| 2026-05-06 18:27 | 58.83578 | 5.63951 | 768 ft | 124 kts | 358° |
| 2026-05-06 18:27 | 58.84430 | 5.63940 | 631 ft | 122 kts | 355° |
| 2026-05-06 18:27 | 58.85289 | 5.63905 | 442 ft | 125 kts | 354° |
| 2026-05-06 18:28 | 58.86147 | 5.63850 | 319 ft | 122 kts | 354° |
| 2026-05-06 18:28 | 58.86995 | 5.63804 | 113 ft | 122 kts | 354° |
| 2026-05-06 18:28 | 58.87804 | 5.63783 | 58 ft | 106 kts | 355° |
| 2026-05-06 18:28 | 58.88397 | 5.63760 | 37 ft | 48 kts | 0° |
| 2026-05-06 18:29 | 58.88653 | 5.63751 | 32 ft | 26 kts | 359° |
| 2026-05-06 18:29 | 58.88847 | 5.63743 | 27 ft | 35 kts | 0° |
| 2026-05-06 18:29 | 58.89100 | 5.63738 | 27 ft | 35 kts | 359° |
| 2026-05-06 18:29 | 58.89311 | 5.63729 | 26 ft | 22 kts | 352° |
| 2026-05-06 18:30 | 58.89344 | 5.63621 | 27 ft | 11 kts | 272° |
| 2026-05-06 18:30 | 58.89336 | 5.63452 | 25 ft | 14 kts | 242° |
| 2026-05-06 18:30 | 58.89252 | 5.63402 | 27 ft | 12 kts | 179° |
| 2026-05-06 18:30 | 58.89170 | 5.63407 | 26 ft | 11 kts | 178° |
| 2026-05-06 18:31 | 58.89099 | 5.63407 | 27 ft | 10 kts | 180° |
| 2026-05-06 18:31 | 58.89030 | 5.63410 | 28 ft | 15 kts | 179° |
| 2026-05-06 18:31 | 58.88845 | 5.63405 | 30 ft | 33 kts | 179° |
| 2026-05-06 18:31 | 58.88644 | 5.63419 | 31 ft | 27 kts | 178° |
| 2026-05-06 18:32 | 58.88468 | 5.63423 | 33 ft | 22 kts | 178° |
| 2026-05-06 18:32 | 58.88333 | 5.63431 | 34 ft | 19 kts | 180° |
| 2026-05-06 18:32 | 58.88209 | 5.63432 | 36 ft | 17 kts | 179° |
| 2026-05-06 18:32 | 58.88096 | 5.63436 | 37 ft | 16 kts | 178° |
| 2026-05-06 18:33 | 58.88006 | 5.63388 | 37 ft | 13 kts | 246° |
| 2026-05-06 18:33 | 58.88036 | 5.63233 | 37 ft | 14 kts | 305° |
| 2026-05-06 18:33 | 58.88102 | 5.63074 | 36 ft | 14 kts | 314° |
| 2026-05-06 18:33 | 58.88131 | 5.63015 | 36 ft | 0 kts | 314° |